Time;durP1;ratioP1;P1;durP2;ratioP2;P2;SDS_P1;SDS_P2;PMS_P1;PMS_P2;Temp;Humidity;BMP_temperature;BMP_pressure;BME280_temperature;BME280_humidity;BME280_pressure;Samples;Min_cycle;Max_cycle;Signal;HPM_P1;HPM_P2
2021/03/01 00:01:52;;;;;;;;;;;21.50;52.10;;;;;;5090485;28;19958;-68
2021/03/01 00:04:17;;;;;;;;;;;21.50;52.00;;;;;;5073764;28;20820;-69
2021/03/01 00:06:43;;;;;;;;;;;21.50;52.00;;;;;;5090860;28;19947;-69
2021/03/01 00:09:09;;;;;;;;;;;21.50;52.00;;;;;;5073662;28;19961;-69
2021/03/01 00:11:35;;;;;;;;;;;21.50;52.00;;;;;;5091763;28;19908;-68
2021/03/01 00:14:01;;;;;;;;;;;21.50;52.00;;;;;;5073333;28;19915;-69
2021/03/01 00:16:27;;;;;;;;;;;21.50;52.00;;;;;;5091848;28;19908;-68
2021/03/01 00:18:53;;;;;;;;;;;21.60;52.10;;;;;;5091986;28;20269;-68
2021/03/01 00:21:19;;;;;;;;;;;21.60;52.00;;;;;;5095951;28;19908;-68
2021/03/01 00:23:46;;;;;;;;;;;21.60;52.10;;;;;;5095773;28;20410;-68
2021/03/01 00:26:12;;;;;;;;;;;21.60;52.10;;;;;;5095664;28;19908;-68
2021/03/01 00:28:37;;;;;;;;;;;21.60;52.10;;;;;;5095796;28;19908;-69
2021/03/01 00:31:03;;;;;;;;;;;21.60;52.10;;;;;;5095660;28;19910;-68
2021/03/01 00:33:29;;;;;;;;;;;21.60;52.10;;;;;;5077572;28;19912;-68
2021/03/01 00:35:55;;;;;;;;;;;21.60;52.10;;;;;;5095804;28;20258;-68
2021/03/01 00:38:20;;;;;;;;;;;21.60;52.10;;;;;;5095958;28;19908;-68
2021/03/01 00:40:46;;;;;;;;;;;21.60;52.10;;;;;;5095914;28;19912;-69
2021/03/01 00:43:12;;;;;;;;;;;21.60;52.10;;;;;;5095914;28;19908;-68
2021/03/01 00:45:38;;;;;;;;;;;21.60;52.10;;;;;;5096048;28;19935;-68
2021/03/01 00:48:04;;;;;;;;;;;21.60;52.10;;;;;;5095994;28;19936;-68
2021/03/01 00:50:30;;;;;;;;;;;21.60;52.20;;;;;;5095902;28;20602;-68
2021/03/01 00:52:55;;;;;;;;;;;21.60;52.20;;;;;;5095787;28;20335;-68
2021/03/01 00:55:22;;;;;;;;;;;21.60;52.20;;;;;;5077580;28;19914;-68
2021/03/01 00:57:47;;;;;;;;;;;21.50;52.10;;;;;;5094145;28;20018;-73
2021/03/01 01:00:18;;;;;;;;;;;21.60;52.20;;;;;;5077688;28;20018;-73
2021/03/01 01:02:52;;;;;;;;;;;21.50;52.10;;;;;;5094243;28;19920;-74
2021/03/01 01:05:31;;;;;;;;;;;21.50;52.10;;;;;;5077101;28;19908;-73
2021/03/01 01:07:57;;;;;;;;;;;21.50;52.10;;;;;;5095453;28;19989;-73
2021/03/01 01:10:23;;;;;;;;;;;21.60;52.20;;;;;;5095152;28;19907;-74
2021/03/01 01:12:48;;;;;;;;;;;21.50;52.20;;;;;;5095427;28;19919;-73
2021/03/01 01:15:15;;;;;;;;;;;21.50;52.20;;;;;;5095115;28;19908;-73
2021/03/01 01:17:41;;;;;;;;;;;21.50;52.20;;;;;;5095219;28;19915;-73
2021/03/01 01:20:08;;;;;;;;;;;21.60;52.80;;;;;;5095474;28;19908;-73
2021/03/01 01:22:33;;;;;;;;;;;21.50;52.20;;;;;;5076936;28;20258;-73
2021/03/01 01:24:59;;;;;;;;;;;21.60;52.20;;;;;;5094058;28;19915;-74
2021/03/01 01:27:25;;;;;;;;;;;21.50;52.10;;;;;;5096402;28;19919;-73
2021/03/01 01:29:51;;;;;;;;;;;21.50;52.10;;;;;;5078272;28;19904;-73
2021/03/01 01:32:16;;;;;;;;;;;21.60;52.20;;;;;;5094656;28;20006;-74
2021/03/01 01:34:42;;;;;;;;;;;21.50;52.20;;;;;;5095680;28;19908;-74
2021/03/01 01:37:08;;;;;;;;;;;21.50;52.20;;;;;;5095603;28;19950;-73
2021/03/01 01:39:34;;;;;;;;;;;21.50;52.10;;;;;;5094939;28;19904;-73
2021/03/01 01:42:00;;;;;;;;;;;21.50;52.10;;;;;;5094448;28;19908;-73
2021/03/01 01:44:25;;;;;;;;;;;21.60;52.20;;;;;;5094412;28;19915;-73
2021/03/01 01:46:51;;;;;;;;;;;21.60;52.20;;;;;;5094997;28;19904;-73
2021/03/01 01:49:17;;;;;;;;;;;21.50;52.20;;;;;;5094057;28;20742;-73
2021/03/01 01:51:43;;;;;;;;;;;21.50;52.20;;;;;;5092783;28;19912;-74
2021/03/01 01:54:09;;;;;;;;;;;21.50;52.20;;;;;;5094439;28;19904;-74
2021/03/01 01:56:35;;;;;;;;;;;21.50;52.20;;;;;;5094546;28;19912;-74
2021/03/01 01:59:01;;;;;;;;;;;21.50;52.20;;;;;;5094503;28;19919;-74
2021/03/01 02:01:27;;;;;;;;;;;21.50;52.20;;;;;;5094238;28;19999;-74
2021/03/01 02:04:00;;;;;;;;;;;21.50;52.20;;;;;;5109553;28;20377;-74
2021/03/01 02:06:25;;;;;;;;;;;21.50;52.30;;;;;;5096327;28;20417;-74
2021/03/01 02:09:13;;;;;;;;;;;21.50;52.30;;;;;;5114299;28;19908;-74
2021/03/01 02:11:48;;;;;;;;;;;21.50;52.30;;;;;;5114416;28;20057;-74
2021/03/01 02:14:19;;;;;;;;;;;21.50;52.30;;;;;;5114145;28;19915;-74
2021/03/01 02:16:45;;;;;;;;;;;21.50;52.30;;;;;;5114172;28;19912;-73
2021/03/01 02:19:12;;;;;;;;;;;21.50;52.30;;;;;;5114039;28;20048;-74
2021/03/01 02:21:43;;;;;;;;;;;21.50;52.30;;;;;;5114334;28;19908;-68
2021/03/01 02:24:09;;;;;;;;;;;21.50;52.40;;;;;;5096012;28;19998;-68
2021/03/01 02:26:36;;;;;;;;;;;21.50;52.40;;;;;;5114157;28;20007;-68
2021/03/01 02:29:09;;;;;;;;;;;21.50;52.40;;;;;;5114252;28;19907;-68
2021/03/01 02:31:38;;;;;;;;;;;21.50;52.40;;;;;;5113992;28;19912;-68
2021/03/01 02:34:05;;;;;;;;;;;21.50;52.40;;;;;;5114296;28;19908;-68
2021/03/01 02:36:46;;;;;;;;;;;21.50;52.40;;;;;;5114020;28;19994;-67
2021/03/01 02:39:15;;;;;;;;;;;21.50;52.40;;;;;;5114113;28;19908;-68
2021/03/01 02:41:41;;;;;;;;;;;21.40;52.40;;;;;;5113980;28;20346;-68
2021/03/01 02:44:07;;;;;;;;;;;21.50;52.50;;;;;;5095753;28;20349;-73
2021/03/01 02:46:35;;;;;;;;;;;21.50;52.50;;;;;;5095429;28;19912;-73
2021/03/01 02:49:01;;;;;;;;;;;21.40;52.40;;;;;;5113667;28;19903;-74
2021/03/01 02:51:27;;;;;;;;;;;21.50;52.50;;;;;;5113751;28;19911;-74
2021/03/01 02:53:55;;;;;;;;;;;21.40;52.40;;;;;;5113799;28;19908;-73
2021/03/01 02:56:21;;;;;;;;;;;21.40;52.50;;;;;;5113752;28;19903;-74
2021/03/01 02:58:49;;;;;;;;;;;21.50;52.50;;;;;;5113368;28;19907;-74
2021/03/01 03:01:15;;;;;;;;;;;21.40;52.50;;;;;;5113666;28;19911;-74
2021/03/01 03:03:43;;;;;;;;;;;21.50;52.50;;;;;;5113287;28;19924;-74
2021/03/01 03:06:10;;;;;;;;;;;21.40;52.50;;;;;;5113330;28;19908;-74
2021/03/01 03:08:37;;;;;;;;;;;21.40;52.50;;;;;;5095499;28;19943;-68
2021/03/01 03:11:04;;;;;;;;;;;21.40;52.50;;;;;;5113625;28;19931;-68
2021/03/01 03:13:30;;;;;;;;;;;21.40;52.50;;;;;;5095053;28;19907;-68
2021/03/01 03:15:56;;;;;;;;;;;21.40;52.60;;;;;;5113509;28;19934;-68
2021/03/01 03:18:23;;;;;;;;;;;21.40;52.60;;;;;;5113419;28;20377;-68
2021/03/01 03:20:49;;;;;;;;;;;21.40;52.60;;;;;;5078304;28;20364;-68
2021/03/01 03:23:16;;;;;;;;;;;21.40;52.60;;;;;;5113486;28;19962;-68
2021/03/01 03:25:42;;;;;;;;;;;21.40;52.60;;;;;;5113226;28;19914;-68
2021/03/01 03:28:07;;;;;;;;;;;21.40;52.60;;;;;;5113269;28;19907;-68
2021/03/01 03:30:33;;;;;;;;;;;21.40;52.60;;;;;;5113275;28;19930;-68
2021/03/01 03:33:00;;;;;;;;;;;21.40;52.60;;;;;;5112953;28;20361;-69
2021/03/01 03:35:25;;;;;;;;;;;21.40;52.60;;;;;;5113407;28;20063;-69
2021/03/01 03:37:58;;;;;;;;;;;21.40;52.60;;;;;;5113135;28;20325;-68
2021/03/01 03:40:25;;;;;;;;;;;21.40;52.60;;;;;;5113355;28;19952;-68
2021/03/01 03:42:51;;;;;;;;;;;21.40;52.70;;;;;;5094764;28;19934;-68
2021/03/01 03:45:17;;;;;;;;;;;21.30;52.60;;;;;;5113046;28;19951;-68
2021/03/01 03:47:44;;;;;;;;;;;21.30;52.60;;;;;;5112333;28;20281;-68
2021/03/01 03:50:10;;;;;;;;;;;21.30;52.60;;;;;;5112902;28;19934;-68
2021/03/01 03:52:38;;;;;;;;;;;21.30;52.60;;;;;;5113308;28;20018;-68
2021/03/01 03:55:06;;;;;;;;;;;21.30;52.70;;;;;;5096817;28;20250;-68
2021/03/01 03:57:36;;;;;;;;;;;21.30;52.60;;;;;;5117270;28;19912;-68
2021/03/01 04:00:04;;;;;;;;;;;21.30;52.70;;;;;;5081909;28;19999;-68
2021/03/01 04:02:32;;;;;;;;;;;21.30;52.70;;;;;;5116832;28;20018;-68
2021/03/01 04:04:58;;;;;;;;;;;21.30;52.70;;;;;;5117217;28;19952;-69
2021/03/01 04:07:25;;;;;;;;;;;21.30;53.30;;;;;;5117329;28;19907;-69
2021/03/01 04:09:51;;;;;;;;;;;21.30;52.80;;;;;;5098593;28;20250;-69
2021/03/01 04:12:17;;;;;;;;;;;21.30;52.70;;;;;;5116920;28;20112;-69
2021/03/01 04:14:49;;;;;;;;;;;21.30;52.70;;;;;;5098361;28;19949;-68
2021/03/01 04:17:16;;;;;;;;;;;21.30;52.70;;;;;;5116522;28;19914;-68
2021/03/01 04:19:44;;;;;;;;;;;21.30;52.70;;;;;;5116765;28;19903;-68
2021/03/01 04:22:10;;;;;;;;;;;21.30;52.70;;;;;;5116773;28;19919;-68
2021/03/01 04:24:37;;;;;;;;;;;21.30;52.80;;;;;;5116767;28;19938;-68
2021/03/01 04:27:04;;;;;;;;;;;21.20;52.70;;;;;;5116664;28;19915;-68
2021/03/01 04:29:30;;;;;;;;;;;21.20;52.70;;;;;;5116332;28;19908;-68
2021/03/01 04:31:57;;;;;;;;;;;21.20;52.80;;;;;;5116355;28;20006;-67
2021/03/01 04:34:24;;;;;;;;;;;21.20;52.80;;;;;;5116186;28;19933;-67
2021/03/01 04:36:50;;;;;;;;;;;21.20;52.80;;;;;;5116088;28;19908;-67
2021/03/01 04:39:16;;;;;;;;;;;21.20;52.80;;;;;;5097973;28;19908;-68
2021/03/01 04:41:43;;;;;;;;;;;21.20;52.90;;;;;;5097785;28;19907;-67
2021/03/01 04:44:10;;;;;;;;;;;21.20;52.90;;;;;;5116168;28;19957;-68
2021/03/01 04:46:36;;;;;;;;;;;21.20;52.90;;;;;;5116505;28;20332;-67
2021/03/01 04:49:02;;;;;;;;;;;21.20;53.00;;;;;;5116286;28;19908;-67
2021/03/01 04:51:29;;;;;;;;;;;21.20;53.00;;;;;;5116168;28;20000;-68
2021/03/01 04:53:55;;;;;;;;;;;21.20;53.00;;;;;;5115958;28;19915;-68
2021/03/01 04:56:22;;;;;;;;;;;21.20;53.10;;;;;;5116137;28;19914;-68
2021/03/01 04:58:48;;;;;;;;;;;21.20;53.10;;;;;;5115967;28;20364;-68
2021/03/01 05:01:15;;;;;;;;;;;21.20;53.10;;;;;;5116423;28;20363;-68
2021/03/01 05:03:41;;;;;;;;;;;21.20;53.10;;;;;;5115719;28;20453;-73
2021/03/01 05:06:07;;;;;;;;;;;21.20;53.10;;;;;;5114110;28;19912;-73
2021/03/01 05:08:33;;;;;;;;;;;21.30;53.20;;;;;;5115733;28;20002;-73
2021/03/01 05:11:00;;;;;;;;;;;21.30;53.20;;;;;;5097403;28;19907;-73
2021/03/01 05:13:25;;;;;;;;;;;21.30;53.20;;;;;;5115048;28;20009;-72
2021/03/01 05:15:51;;;;;;;;;;;21.30;53.20;;;;;;5115334;28;19983;-72
2021/03/01 05:18:17;;;;;;;;;;;21.30;53.30;;;;;;5115895;28;20280;-73
2021/03/01 05:20:44;;;;;;;;;;;21.30;53.20;;;;;;5097437;28;20369;-73
2021/03/01 05:23:09;;;;;;;;;;;21.30;53.30;;;;;;5115610;28;20022;-73
2021/03/01 05:25:35;;;;;;;;;;;21.30;53.20;;;;;;5115658;28;19915;-73
2021/03/01 05:28:01;;;;;;;;;;;21.30;53.30;;;;;;5115646;28;19904;-74
2021/03/01 05:30:27;;;;;;;;;;;21.30;53.20;;;;;;5115295;28;19907;-73
2021/03/01 05:32:53;;;;;;;;;;;21.30;53.20;;;;;;5115223;28;19912;-73
2021/03/01 05:35:19;;;;;;;;;;;21.30;53.20;;;;;;5096829;28;19907;-73
2021/03/01 05:37:44;;;;;;;;;;;21.30;53.20;;;;;;5115397;28;20398;-73
2021/03/01 05:40:11;;;;;;;;;;;21.30;53.20;;;;;;5115079;28;19911;-73
2021/03/01 05:42:37;;;;;;;;;;;21.30;53.10;;;;;;5081584;28;19983;-73
2021/03/01 05:45:04;;;;;;;;;;;21.30;53.10;;;;;;5074684;28;19908;-74
2021/03/01 05:47:30;;;;;;;;;;;21.30;53.10;;;;;;5082330;28;19908;-68
2021/03/01 05:49:58;;;;;;;;;;;21.30;53.10;;;;;;5078903;28;19947;-69
2021/03/01 05:52:24;;;;;;;;;;;21.30;53.70;;;;;;5056955;28;19919;-69
2021/03/01 05:54:50;;;;;;;;;;;21.30;53.10;;;;;;5083872;28;19904;-69
2021/03/01 05:57:17;;;;;;;;;;;21.30;53.10;;;;;;5094626;28;20459;-69
2021/03/01 05:59:45;;;;;;;;;;;21.30;53.10;;;;;;5086972;28;19916;-69
2021/03/01 06:02:11;;;;;;;;;;;21.30;53.10;;;;;;5075489;28;20420;-69
2021/03/01 06:04:40;;;;;;;;;;;21.30;53.10;;;;;;5080681;28;20361;-69
2021/03/01 06:07:06;;;;;;;;;;;21.30;53.10;;;;;;5093388;28;19956;-69
2021/03/01 06:09:32;;;;;;;;;;;21.30;53.10;;;;;;5091614;28;19991;-69
2021/03/01 06:11:58;;;;;;;;;;;21.30;53.10;;;;;;5094397;28;19919;-69
2021/03/01 06:14:24;;;;;;;;;;;21.30;53.10;;;;;;5093935;28;19998;-69
2021/03/01 06:17:10;;;;;;;;;;;21.20;53.00;;;;;;5094014;28;19908;-69
2021/03/01 06:19:43;;;;;;;;;;;21.30;53.10;;;;;;5089519;28;19962;-66
2021/03/01 06:22:09;;;;;;;;;;;21.20;53.00;;;;;;5073970;28;20316;-69
2021/03/01 06:24:35;;;;;;;;;;;21.20;53.00;;;;;;5075204;28;19915;-70
2021/03/01 06:27:01;;;;;;;;;;;21.30;53.10;;;;;;5074035;28;19908;-68
2021/03/01 06:29:26;;;;;;;;;;;21.30;53.10;;;;;;5076876;28;20010;-67
2021/03/01 06:31:52;;;;;;;;;;;21.30;53.10;;;;;;5093860;28;19915;-70
2021/03/01 06:34:18;;;;;;;;;;;21.20;53.10;;;;;;5092826;28;19908;-68
2021/03/01 06:36:54;;;;;;;;;;;21.20;53.00;;;;;;5093662;28;19953;-68
2021/03/01 06:39:31;;;;;;;;;;;21.20;53.00;;;;;;5092837;28;19907;-68
2021/03/01 06:41:57;;;;;;;;;;;21.20;53.00;;;;;;5073594;28;19915;-68
2021/03/01 06:44:23;;;;;;;;;;;21.20;53.00;;;;;;5074036;28;19904;-68
2021/03/01 06:46:50;;;;;;;;;;;21.20;53.00;;;;;;5094002;28;19976;-68
2021/03/01 06:49:17;;;;;;;;;;;21.20;53.00;;;;;;5075593;28;19912;-68
2021/03/01 06:51:43;;;;;;;;;;;21.20;53.00;;;;;;5092087;28;19958;-68
2021/03/01 06:54:09;;;;;;;;;;;21.20;53.00;;;;;;5090693;28;19916;-67
2021/03/01 06:56:38;;;;;;;;;;;21.10;53.00;;;;;;5076925;28;19909;-68
2021/03/01 06:59:15;;;;;;;;;;;21.20;53.10;;;;;;5072433;28;19957;-68
2021/03/01 07:01:45;;;;;;;;;;;21.20;53.10;;;;;;5089782;28;20430;-68
2021/03/01 07:04:17;;;;;;;;;;;21.10;53.00;;;;;;5088452;28;19955;-68
2021/03/01 07:06:43;;;;;;;;;;;21.10;53.00;;;;;;5087272;28;19912;-68
2021/03/01 07:09:13;;;;;;;;;;;21.10;53.00;;;;;;5092323;28;19919;-74
2021/03/01 07:11:38;;;;;;;;;;;21.10;53.00;;;;;;5076728;28;20650;-74
2021/03/01 07:14:04;;;;;;;;;;;21.10;53.00;;;;;;5072724;28;19948;-74
2021/03/01 07:16:40;;;;;;;;;;;21.10;53.10;;;;;;5086364;28;19960;-74
2021/03/01 07:19:11;;;;;;;;;;;21.10;53.10;;;;;;5089694;28;19935;-74
2021/03/01 07:21:38;;;;;;;;;;;21.10;53.10;;;;;;5078682;28;19908;-74
2021/03/01 07:24:04;;;;;;;;;;;21.10;53.10;;;;;;5083693;28;19968;-74
2021/03/01 07:26:30;;;;;;;;;;;21.10;53.10;;;;;;5092889;28;19916;-74
2021/03/01 07:29:02;;;;;;;;;;;21.10;53.10;;;;;;5082192;28;19932;-74
2021/03/01 07:31:28;;;;;;;;;;;21.10;53.10;;;;;;5072242;28;20350;-74
2021/03/01 07:33:54;;;;;;;;;;;21.10;53.10;;;;;;5080967;28;19951;-74
2021/03/01 07:36:20;;;;;;;;;;;21.10;53.10;;;;;;5092452;28;19911;-74
2021/03/01 07:38:46;;;;;;;;;;;21.10;53.10;;;;;;5085436;28;19974;-73
2021/03/01 07:41:12;;;;;;;;;;;21.10;53.10;;;;;;5072286;28;19999;-75
2021/03/01 07:43:40;;;;;;;;;;;21.10;53.10;;;;;;5077468;28;19920;-75
2021/03/01 07:46:05;;;;;;;;;;;21.10;53.20;;;;;;5092402;28;19912;-74
2021/03/01 07:48:36;;;;;;;;;;;21.10;53.10;;;;;;5090781;28;20340;-73
2021/03/01 07:51:02;;;;;;;;;;;21.10;53.10;;;;;;5092144;28;19987;-73
2021/03/01 07:53:50;;;;;;;;;;;21.10;53.10;;;;;;5090677;28;19908;-73
2021/03/01 07:56:22;;;;;;;;;;;21.10;53.10;;;;;;5073971;28;19911;-72
2021/03/01 07:58:54;;;;;;;;;;;21.10;53.10;;;;;;5086711;28;19909;-72
2021/03/01 08:01:20;;;;;;;;;;;21.10;53.00;;;;;;5053978;28;20039;-73
2021/03/01 08:03:47;;;;;;;;;;;21.20;53.10;;;;;;5075682;28;20037;-74
2021/03/01 08:06:12;;;;;;;;;;;21.10;53.00;;;;;;5092052;28;20300;-74
2021/03/01 08:08:46;;;;;;;;;;;21.10;53.00;;;;;;5089124;28;19915;-75
2021/03/01 08:11:12;;;;;;;;;;;21.20;53.20;;;;;;5071865;28;19958;-75
2021/03/01 08:13:38;;;;;;;;;;;21.20;53.10;;;;;;5073607;28;19916;-75
2021/03/01 08:16:17;;;;;;;;;;;21.20;53.10;;;;;;5091530;28;20285;-73
2021/03/01 08:19:09;;;;;;;;;;;21.20;53.70;;;;;;5092514;28;20006;-75
2021/03/01 08:21:54;;;;;;;;;;;21.20;53.10;;;;;;5056830;28;19912;-73
2021/03/01 08:24:38;;;;;;;;;;;21.20;53.10;;;;;;5082866;28;19911;-70
2021/03/01 08:27:24;;;;;;;;;;;21.30;53.10;;;;;;5082534;28;19908;-72
2021/03/01 08:30:11;;;;;;;;;;;21.30;53.10;;;;;;5083007;28;20408;-72
2021/03/01 08:32:37;;;;;;;;;;;21.30;53.10;;;;;;5081697;28;19927;-72
2021/03/01 08:35:21;;;;;;;;;;;21.30;53.10;;;;;;5071762;28;19912;-70
2021/03/01 08:37:47;;;;;;;;;;;21.30;53.10;;;;;;5082313;28;19909;-71
2021/03/01 08:40:21;;;;;;;;;;;21.40;53.20;;;;;;5068718;28;19912;-72
2021/03/01 08:42:47;;;;;;;;;;;21.40;53.20;;;;;;5075887;28;19912;-73
2021/03/01 08:45:19;;;;;;;;;;;21.40;53.20;;;;;;5075369;28;19950;-72
2021/03/01 08:47:48;;;;;;;;;;;21.40;53.20;;;;;;5084566;28;19915;-72
2021/03/01 08:50:14;;;;;;;;;;;21.40;53.10;;;;;;5084311;28;20422;-72
2021/03/01 08:52:50;;;;;;;;;;;21.50;53.20;;;;;;5073468;28;19913;-72
2021/03/01 08:55:17;;;;;;;;;;;21.50;53.10;;;;;;5084795;28;19959;-71
2021/03/01 08:58:01;;;;;;;;;;;21.50;53.10;;;;;;5085266;28;20750;-72
2021/03/01 09:00:28;;;;;;;;;;;21.60;53.10;;;;;;5074131;28;20389;-70
2021/03/01 09:03:14;;;;;;;;;;;21.60;53.10;;;;;;5088745;28;19972;-72
2021/03/01 09:05:40;;;;;;;;;;;21.60;53.10;;;;;;5085981;28;19951;-73
2021/03/01 09:08:07;;;;;;;;;;;21.70;53.10;;;;;;5074853;28;19911;-68
2021/03/01 09:10:37;;;;;;;;;;;21.70;53.10;;;;;;5091625;28;19958;-69
2021/03/01 09:13:04;;;;;;;;;;;21.70;53.00;;;;;;5097469;28;19919;-69
2021/03/01 09:15:30;;;;;;;;;;;21.70;53.00;;;;;;5090183;28;19908;-70
2021/03/01 09:17:57;;;;;;;;;;;21.80;53.00;;;;;;5079710;28;19958;-69
2021/03/01 09:20:23;;;;;;;;;;;21.80;52.90;;;;;;5075829;28;19908;-68
2021/03/01 09:22:49;;;;;;;;;;;21.90;52.80;;;;;;5089776;28;20323;-68
2021/03/01 09:25:24;;;;;;;;;;;21.90;52.70;;;;;;5085957;28;19908;-63
2021/03/01 09:27:50;;;;;;;;;;;21.90;52.70;;;;;;5086573;28;19916;-57
2021/03/01 09:30:19;;;;;;;;;;;21.90;52.60;;;;;;5087453;28;19908;-57
2021/03/01 09:32:53;;;;;;;;;;;22.00;52.70;;;;;;5091582;28;19916;-53
2021/03/01 09:35:20;;;;;;;;;;;22.00;52.70;;;;;;5095131;28;19923;-61
2021/03/01 09:37:45;;;;;;;;;;;22.00;52.70;;;;;;5088828;28;20008;-57
2021/03/01 09:40:17;;;;;;;;;;;22.00;52.60;;;;;;5086379;28;19991;-60
2021/03/01 09:42:46;;;;;;;;;;;22.10;52.50;;;;;;5074865;28;19958;-57
2021/03/01 09:45:12;;;;;;;;;;;22.10;51.90;;;;;;5081040;28;19915;-58
2021/03/01 09:47:38;;;;;;;;;;;22.20;52.40;;;;;;5086740;28;19904;-63
2021/03/01 09:50:04;;;;;;;;;;;22.20;52.30;;;;;;5093553;28;20277;-63
2021/03/01 09:52:30;;;;;;;;;;;22.30;52.20;;;;;;5087029;28;19912;-61
2021/03/01 09:54:58;;;;;;;;;;;22.30;52.10;;;;;;5070078;28;19977;-64
2021/03/01 09:57:28;;;;;;;;;;;22.30;52.00;;;;;;5091293;28;19907;-61
2021/03/01 09:59:54;;;;;;;;;;;22.40;52.00;;;;;;5093930;28;19908;-57
2021/03/01 10:02:22;;;;;;;;;;;22.50;52.00;;;;;;5090585;28;19912;-57
2021/03/01 10:04:48;;;;;;;;;;;22.50;51.90;;;;;;5043936;28;19955;-58
2021/03/01 10:07:21;;;;;;;;;;;22.60;51.90;;;;;;5078670;28;20358;-56
2021/03/01 10:09:48;;;;;;;;;;;22.60;51.80;;;;;;5098692;28;20661;-55
2021/03/01 10:12:14;;;;;;;;;;;22.60;51.80;;;;;;5085301;28;19919;-55
2021/03/01 10:14:40;;;;;;;;;;;22.60;51.80;;;;;;5091168;28;19908;-55
2021/03/01 10:17:25;;;;;;;;;;;22.70;51.60;;;;;;5090499;28;19908;-56
2021/03/01 10:19:51;;;;;;;;;;;22.70;51.60;;;;;;5094400;28;19908;-57
2021/03/01 10:22:17;;;;;;;;;;;22.70;51.50;;;;;;5092105;28;19916;-58
2021/03/01 10:24:44;;;;;;;;;;;22.70;51.50;;;;;;5062239;28;19912;-56
2021/03/01 10:27:10;;;;;;;;;;;22.80;51.60;;;;;;5082044;28;20317;-57
2021/03/01 10:29:44;;;;;;;;;;;22.80;51.50;;;;;;5080678;28;19908;-50
2021/03/01 10:32:20;;;;;;;;;;;22.80;51.60;;;;;;5086243;28;19919;-55
2021/03/01 10:34:46;;;;;;;;;;;22.90;51.70;;;;;;5088436;28;19912;-57
2021/03/01 10:37:13;;;;;;;;;;;23.00;51.70;;;;;;5083001;28;19908;-58
2021/03/01 10:39:43;;;;;;;;;;;23.00;51.50;;;;;;5077941;28;20377;-63
2021/03/01 10:42:13;;;;;;;;;;;23.10;51.20;;;;;;5084684;28;19955;-58
2021/03/01 10:44:43;;;;;;;;;;;23.10;51.00;;;;;;5082547;28;19908;-56
2021/03/01 10:47:18;;;;;;;;;;;23.10;50.90;;;;;;5070261;28;19955;-55
2021/03/01 10:49:54;;;;;;;;;;;23.00;50.70;;;;;;5082648;28;20397;-57
2021/03/01 10:52:20;;;;;;;;;;;23.00;50.70;;;;;;5072406;28;19934;-59
2021/03/01 10:54:46;;;;;;;;;;;22.90;50.70;;;;;;5091811;28;19933;-60
2021/03/01 10:57:12;;;;;;;;;;;22.80;50.80;;;;;;5063881;28;19915;-60
2021/03/01 10:59:39;;;;;;;;;;;22.80;50.90;;;;;;5087509;28;20278;-60
2021/03/01 11:02:07;;;;;;;;;;;22.70;50.70;;;;;;5082836;28;19920;-59
2021/03/01 11:04:33;;;;;;;;;;;22.70;50.80;;;;;;5077893;28;20239;-60
2021/03/01 11:06:59;;;;;;;;;;;22.70;50.90;;;;;;5074036;28;19916;-59
2021/03/01 11:09:25;;;;;;;;;;;22.70;51.00;;;;;;5084110;28;19912;-57
2021/03/01 11:11:52;;;;;;;;;;;22.80;50.50;;;;;;5082325;28;19916;-57
2021/03/01 11:14:18;;;;;;;;;;;22.90;50.20;;;;;;5084212;28;20061;-57
2021/03/01 11:16:44;;;;;;;;;;;23.00;49.90;;;;;;5072869;28;19950;-57
2021/03/01 11:19:11;;;;;;;;;;;23.10;49.70;;;;;;5072815;28;20258;-57
2021/03/01 11:21:37;;;;;;;;;;;23.30;49.70;;;;;;5083755;28;20061;-56
2021/03/01 11:24:03;;;;;;;;;;;23.40;49.30;;;;;;5092914;28;19911;-56
2021/03/01 11:26:29;;;;;;;;;;;23.70;48.80;;;;;;5087557;28;19904;-57
2021/03/01 11:28:55;;;;;;;;;;;23.90;48.80;;;;;;5092813;28;20495;-57
2021/03/01 11:31:22;;;;;;;;;;;24.10;48.60;;;;;;5093196;28;19912;-56
2021/03/01 11:33:48;;;;;;;;;;;24.30;48.00;;;;;;5089058;28;20636;-56
2021/03/01 11:36:14;;;;;;;;;;;24.60;47.20;;;;;;5056134;28;20022;-57
2021/03/01 11:38:40;;;;;;;;;;;24.80;46.80;;;;;;5081329;28;20433;-56
2021/03/01 11:41:06;;;;;;;;;;;24.90;45.60;;;;;;5107906;28;20314;-59
2021/03/01 11:43:35;;;;;;;;;;;25.00;44.40;;;;;;5087930;28;19908;-60
2021/03/01 11:46:01;;;;;;;;;;;25.00;44.20;;;;;;5088475;28;20349;-57
2021/03/01 11:48:27;;;;;;;;;;;25.00;44.30;;;;;;5089681;28;19961;-59
2021/03/01 11:50:53;;;;;;;;;;;24.90;44.50;;;;;;5088623;28;20424;-59
2021/03/01 11:53:19;;;;;;;;;;;24.90;44.50;;;;;;5088061;28;19912;-60
2021/03/01 11:55:45;;;;;;;;;;;24.80;44.60;;;;;;5078238;28;19995;-59
2021/03/01 11:58:11;;;;;;;;;;;24.70;44.70;;;;;;5074654;28;19908;-62
2021/03/01 12:00:40;;;;;;;;;;;24.70;44.70;;;;;;5069972;28;19954;-65
2021/03/01 12:03:10;;;;;;;;;;;24.60;44.80;;;;;;5087044;28;19959;-64
2021/03/01 12:05:36;;;;;;;;;;;24.70;44.80;;;;;;5074840;28;19912;-67
2021/03/01 12:08:03;;;;;;;;;;;24.60;44.50;;;;;;5092853;28;19908;-66
2021/03/01 12:10:29;;;;;;;;;;;24.70;44.00;;;;;;5075467;28;19915;-66
2021/03/01 12:12:55;;;;;;;;;;;24.70;43.40;;;;;;5074374;28;19912;-67
2021/03/01 12:15:21;;;;;;;;;;;24.60;42.90;;;;;;5092866;28;20363;-69
2021/03/01 12:17:47;;;;;;;;;;;24.60;42.90;;;;;;5078050;28;20634;-62
2021/03/01 12:20:13;;;;;;;;;;;24.50;42.70;;;;;;5061721;28;19942;-63
2021/03/01 12:22:38;;;;;;;;;;;24.50;42.80;;;;;;5096844;28;19915;-61
2021/03/01 12:25:05;;;;;;;;;;;24.50;42.80;;;;;;5096707;28;19957;-62
2021/03/01 12:27:30;;;;;;;;;;;24.40;42.80;;;;;;5078219;28;19904;-57
2021/03/01 12:29:56;;;;;;;;;;;24.30;43.10;;;;;;5096038;28;19915;-64
2021/03/01 12:32:22;;;;;;;;;;;24.30;43.30;;;;;;5096160;28;20387;-62
2021/03/01 12:34:48;;;;;;;;;;;24.20;43.40;;;;;;5061042;28;19998;-58
2021/03/01 12:37:14;;;;;;;;;;;24.30;43.50;;;;;;5096455;28;19997;-67
2021/03/01 12:39:40;;;;;;;;;;;24.30;43.70;;;;;;5095980;28;19904;-60
2021/03/01 12:42:06;;;;;;;;;;;24.30;43.60;;;;;;5061380;28;20381;-61
2021/03/01 12:44:33;;;;;;;;;;;24.40;43.70;;;;;;5061575;28;19998;-61
2021/03/01 12:46:58;;;;;;;;;;;24.50;43.30;;;;;;5096335;28;19946;-62
2021/03/01 12:49:24;;;;;;;;;;;24.60;43.00;;;;;;5078325;28;20381;-63
2021/03/01 12:51:50;;;;;;;;;;;24.70;42.60;;;;;;5095626;28;20824;-63
2021/03/01 12:54:16;;;;;;;;;;;24.70;42.30;;;;;;5116251;28;19919;-65
2021/03/01 12:56:42;;;;;;;;;;;24.70;42.30;;;;;;5086495;28;19953;-64
2021/03/01 12:59:08;;;;;;;;;;;24.80;42.40;;;;;;5077323;28;19912;-65
2021/03/01 13:01:34;;;;;;;;;;;24.80;42.50;;;;;;5077521;28;19912;-62
2021/03/01 13:04:00;;;;;;;;;;;24.80;42.40;;;;;;5075696;28;19923;-61
2021/03/01 13:06:26;;;;;;;;;;;24.80;42.20;;;;;;5054734;28;20295;-62
2021/03/01 13:08:52;;;;;;;;;;;24.90;42.00;;;;;;5074914;28;19994;-61
2021/03/01 13:11:18;;;;;;;;;;;24.90;41.90;;;;;;5057362;28;20008;-62
2021/03/01 13:13:45;;;;;;;;;;;25.00;41.90;;;;;;5074923;28;19912;-63
2021/03/01 13:16:11;;;;;;;;;;;25.10;42.00;;;;;;5088279;28;19912;-65
2021/03/01 13:18:37;;;;;;;;;;;25.10;42.00;;;;;;5060589;28;19915;-62
2021/03/01 13:21:03;;;;;;;;;;;25.10;41.60;;;;;;5077131;28;20285;-61
2021/03/01 13:23:29;;;;;;;;;;;25.50;41.60;;;;;;5061075;28;19912;-61
2021/03/01 13:25:55;;;;;;;;;;;25.10;41.70;;;;;;5043641;28;20762;-65
2021/03/01 13:28:21;;;;;;;;;;;25.20;41.80;;;;;;5055786;28;19908;-62
2021/03/01 13:30:47;;;;;;;;;;;25.20;42.30;;;;;;5075744;28;19915;-62
2021/03/01 13:33:13;;;;;;;;;;;25.40;43.10;;;;;;5074446;28;19994;-60
2021/03/01 13:35:38;;;;;;;;;;;25.60;42.40;;;;;;5075856;28;19908;-62
2021/03/01 13:38:04;;;;;;;;;;;25.70;42.20;;;;;;5075904;28;19931;-62
2021/03/01 13:40:30;;;;;;;;;;;25.80;42.00;;;;;;5057360;28;19998;-62
2021/03/01 13:42:56;;;;;;;;;;;25.80;41.90;;;;;;5057587;28;19966;-61
2021/03/01 13:45:22;;;;;;;;;;;25.80;41.80;;;;;;5057345;28;19904;-62
2021/03/01 13:47:49;;;;;;;;;;;25.80;41.80;;;;;;5075503;28;19916;-62
2021/03/01 13:50:15;;;;;;;;;;;25.80;41.80;;;;;;5075318;28;19916;-61
2021/03/01 13:52:41;;;;;;;;;;;25.80;41.80;;;;;;5057115;28;20337;-61
2021/03/01 13:55:07;;;;;;;;;;;25.70;41.80;;;;;;5083256;28;20277;-59
2021/03/01 13:57:33;;;;;;;;;;;25.70;41.90;;;;;;5094607;28;19926;-58
2021/03/01 13:59:59;;;;;;;;;;;25.70;41.90;;;;;;5076147;28;20339;-58
2021/03/01 14:02:25;;;;;;;;;;;25.60;41.70;;;;;;5062722;28;20261;-59
2021/03/01 14:04:52;;;;;;;;;;;25.50;41.80;;;;;;5089218;28;20391;-59
2021/03/01 14:07:18;;;;;;;;;;;25.50;41.80;;;;;;5110368;28;20015;-58
2021/03/01 14:09:45;;;;;;;;;;;25.40;41.80;;;;;;5114536;28;19912;-58
2021/03/01 14:12:11;;;;;;;;;;;25.40;42.00;;;;;;5114469;28;19907;-59
2021/03/01 14:14:37;;;;;;;;;;;25.30;42.10;;;;;;5114209;28;19914;-60
2021/03/01 14:17:04;;;;;;;;;;;25.30;42.20;;;;;;5114160;28;19908;-58
2021/03/01 14:19:30;;;;;;;;;;;25.20;42.20;;;;;;5114486;28;19915;-58